sensor_id;sensor_type;location;lat;lon;timestamp;pressure;altitude;pressure_sealevel;temperature;humidity
37238;BME280;23129;49.662;8.448;2023-12-14T00:00:08;99665.19;;;7.37;100.00
37238;BME280;23129;49.662;8.448;2023-12-14T00:02:37;99663.47;;;7.36;100.00
37238;BME280;23129;49.662;8.448;2023-12-14T00:05:06;99670.50;;;7.34;100.00
37238;BME280;23129;49.662;8.448;2023-12-14T00:07:35;99673.97;;;7.32;100.00
37238;BME280;23129;49.662;8.448;2023-12-14T00:10:05;99681.72;;;7.36;100.00
37238;BME280;23129;49.662;8.448;2023-12-14T00:12:34;99688.69;;;7.37;100.00
37238;BME280;23129;49.662;8.448;2023-12-14T00:15:04;99688.69;;;7.37;100.00
37238;BME280;23129;49.662;8.448;2023-12-14T00:17:34;99692.13;;;7.37;100.00
37238;BME280;23129;49.662;8.448;2023-12-14T00:20:03;99695.59;;;7.38;100.00
37238;BME280;23129;49.662;8.448;2023-12-14T00:22:33;99695.69;;;7.35;100.00
37238;BME280;23129;49.662;8.448;2023-12-14T00:25:02;99702.69;;;7.32;100.00
37238;BME280;23129;49.662;8.448;2023-12-14T00:27:31;99708.94;;;7.27;100.00
37238;BME280;23129;49.662;8.448;2023-12-14T00:29:59;99707.34;;;7.21;100.00
37238;BME280;23129;49.662;8.448;2023-12-14T00:32:28;99717.03;;;7.16;100.00
37238;BME280;23129;49.662;8.448;2023-12-14T00:34:59;99720.66;;;7.11;100.00
37238;BME280;23129;49.662;8.448;2023-12-14T00:37:28;99718.22;;;7.03;100.00
37238;BME280;23129;49.662;8.448;2023-12-14T00:39:56;99722.72;;;6.98;100.00
37238;BME280;23129;49.662;8.448;2023-12-14T00:42:25;99724.56;;;6.93;100.00
37238;BME280;23129;49.662;8.448;2023-12-14T00:44:54;99722.09;;;6.88;100.00
37238;BME280;23129;49.662;8.448;2023-12-14T00:47:22;99723.94;;;6.83;100.00
37238;BME280;23129;49.662;8.448;2023-12-14T00:49:51;99726.66;;;6.78;100.00
37238;BME280;23129;49.662;8.448;2023-12-14T00:52:22;99733.75;;;6.73;100.00
37238;BME280;23129;49.662;8.448;2023-12-14T00:54:51;99737.34;;;6.66;100.00
37238;BME280;23129;49.662;8.448;2023-12-14T00:57:19;99746.22;;;6.59;100.00
37238;BME280;23129;49.662;8.448;2023-12-14T00:59:48;99751.56;;;6.53;100.00
37238;BME280;23129;49.662;8.448;2023-12-14T01:02:17;99756.94;;;6.47;100.00
37238;BME280;23129;49.662;8.448;2023-12-14T01:04:46;99758.75;;;6.42;100.00
37238;BME280;23129;49.662;8.448;2023-12-14T01:07:14;99764.09;;;6.35;100.00
37238;BME280;23129;49.662;8.448;2023-12-14T01:09:45;99771.16;;;6.30;100.00
37238;BME280;23129;49.662;8.448;2023-12-14T01:12:13;99782.56;;;6.25;100.00
37238;BME280;23129;49.662;8.448;2023-12-14T01:14:42;99776.56;;;6.21;100.00
37238;BME280;23129;49.662;8.448;2023-12-14T01:17:11;99797.44;;;6.18;100.00
37238;BME280;23129;49.662;8.448;2023-12-14T01:19:40;99796.69;;;6.13;100.00
37238;BME280;23129;49.662;8.448;2023-12-14T01:22:09;99794.13;;;6.10;100.00
37238;BME280;23129;49.662;8.448;2023-12-14T01:24:38;99802.91;;;6.06;100.00
37238;BME280;23129;49.662;8.448;2023-12-14T01:27:08;99808.16;;;6.03;100.00
37238;BME280;23129;49.662;8.448;2023-12-14T01:29:38;99808.16;;;6.03;100.00
37238;BME280;23129;49.662;8.448;2023-12-14T01:32:07;99819.38;;;6.08;100.00
37238;BME280;23129;49.662;8.448;2023-12-14T01:34:36;99822.78;;;6.10;100.00
37238;BME280;23129;49.662;8.448;2023-12-14T01:37:04;99827.06;;;6.14;100.00
37238;BME280;23129;49.662;8.448;2023-12-14T01:39:34;99824.41;;;6.15;100.00
37238;BME280;23129;49.662;8.448;2023-12-14T01:42:03;99828.69;;;6.18;100.00
37238;BME280;23129;49.662;8.448;2023-12-14T01:44:33;99835.59;;;6.19;100.00
37238;BME280;23129;49.662;8.448;2023-12-14T01:47:02;99839.94;;;6.20;100.00
37238;BME280;23129;49.662;8.448;2023-12-14T01:49:31;99847.75;;;6.20;100.00
37238;BME280;23129;49.662;8.448;2023-12-14T01:52:00;99852.97;;;6.20;100.00
37238;BME280;23129;49.662;8.448;2023-12-14T01:54:29;99864.22;;;6.21;100.00
37238;BME280;23129;49.662;8.448;2023-12-14T01:56:58;99866.78;;;6.22;100.00
37238;BME280;23129;49.662;8.448;2023-12-14T01:59:26;99862.47;;;6.21;100.00
37238;BME280;23129;49.662;8.448;2023-12-14T02:01:57;99866.84;;;6.19;100.00
37238;BME280;23129;49.662;8.448;2023-12-14T02:04:27;99872.91;;;6.21;100.00
37238;BME280;23129;49.662;8.448;2023-12-14T02:06:55;99878.09;;;6.23;100.00
37238;BME280;23129;49.662;8.448;2023-12-14T02:09:24;99878.03;;;6.26;100.00
37238;BME280;23129;49.662;8.448;2023-12-14T02:11:53;99887.53;;;6.28;100.00
37238;BME280;23129;49.662;8.448;2023-12-14T02:14:22;99887.47;;;6.31;100.00
37238;BME280;23129;49.662;8.448;2023-12-14T02:16:51;99884.88;;;6.31;100.00
37238;BME280;23129;49.662;8.448;2023-12-14T02:19:21;99889.19;;;6.32;100.00
37238;BME280;23129;49.662;8.448;2023-12-14T02:21:50;99884.81;;;6.33;100.00
37238;BME280;23129;49.662;8.448;2023-12-14T02:24:20;99895.25;;;6.33;100.00
37238;BME280;23129;49.662;8.448;2023-12-14T02:26:49;99896.09;;;6.33;100.00
37238;BME280;23129;49.662;8.448;2023-12-14T02:29:30;99906.50;;;6.33;100.00
37238;BME280;23129;49.662;8.448;2023-12-14T02:31:59;99902.16;;;6.34;100.00
37238;BME280;23129;49.662;8.448;2023-12-14T02:34:28;99906.50;;;6.33;100.00
37238;BME280;23129;49.662;8.448;2023-12-14T02:36:56;99907.38;;;6.34;100.00
37238;BME280;23129;49.662;8.448;2023-12-14T02:39:27;99910.88;;;6.33;100.00
37238;BME280;23129;49.662;8.448;2023-12-14T02:41:55;99918.75;;;6.30;100.00
37238;BME280;23129;49.662;8.448;2023-12-14T02:44:24;99917.03;;;6.27;100.00
37238;BME280;23129;49.662;8.448;2023-12-14T02:46:53;99921.41;;;6.27;100.00
37238;BME280;23129;49.662;8.448;2023-12-14T02:49:22;99928.38;;;6.25;100.00
37238;BME280;23129;49.662;8.448;2023-12-14T02:51:50;99931.88;;;6.25;100.00
37238;BME280;23129;49.662;8.448;2023-12-14T02:54:19;99927.53;;;6.24;100.00
37238;BME280;23129;49.662;8.448;2023-12-14T02:56:49;99932.78;;;6.23;100.00
37238;BME280;23129;49.662;8.448;2023-12-14T02:59:18;99941.44;;;6.22;100.00
37238;BME280;23129;49.662;8.448;2023-12-14T03:01:46;99944.97;;;6.19;100.00
37238;BME280;23129;49.662;8.448;2023-12-14T03:04:15;99952.81;;;6.17;100.00
37238;BME280;23129;49.662;8.448;2023-12-14T03:06:44;99951.13;;;6.16;100.00
37238;BME280;23129;49.662;8.448;2023-12-14T03:09:13;99949.38;;;6.17;100.00
37238;BME280;23129;49.662;8.448;2023-12-14T03:11:42;99955.38;;;6.19;100.00
37238;BME280;23129;49.662;8.448;2023-12-14T03:14:12;99962.31;;;6.20;100.00
37238;BME280;23129;49.662;8.448;2023-12-14T03:16:40;99967.53;;;6.20;100.00
37238;BME280;23129;49.662;8.448;2023-12-14T03:19:09;99969.25;;;6.21;100.00
37238;BME280;23129;49.662;8.448;2023-12-14T03:21:38;99977.91;;;6.23;100.00
37238;BME280;23129;49.662;8.448;2023-12-14T03:24:07;99975.25;;;6.25;100.00
37238;BME280;23129;49.662;8.448;2023-12-14T03:26:36;99975.25;;;6.25;100.00
37238;BME280;23129;49.662;8.448;2023-12-14T03:29:05;99986.53;;;6.25;100.00
37238;BME280;23129;49.662;8.448;2023-12-14T03:31:36;99996.97;;;6.25;100.00
37238;BME280;23129;49.662;8.448;2023-12-14T03:34:07;99998.69;;;6.26;100.00
37238;BME280;23129;49.662;8.448;2023-12-14T03:36:39;99997.78;;;6.27;100.00
37238;BME280;23129;49.662;8.448;2023-12-14T03:39:16;99994.38;;;6.25;100.00
37238;BME280;23129;49.662;8.448;2023-12-14T03:41:45;100007.38;;;6.25;100.00
37238;BME280;23129;49.662;8.448;2023-12-14T03:44:14;100009.09;;;6.25;100.00
37238;BME280;23129;49.662;8.448;2023-12-14T03:46:44;100011.69;;;6.25;100.00
37238;BME280;23129;49.662;8.448;2023-12-14T03:49:13;100010.84;;;6.24;100.00
37238;BME280;23129;49.662;8.448;2023-12-14T03:51:42;100010.00;;;6.24;100.00
37238;BME280;23129;49.662;8.448;2023-12-14T03:54:11;100010.00;;;6.24;100.00
37238;BME280;23129;49.662;8.448;2023-12-14T03:56:42;100010.84;;;6.24;100.00
37238;BME280;23129;49.662;8.448;2023-12-14T03:59:11;100022.97;;;6.27;100.00
37238;BME280;23129;49.662;8.448;2023-12-14T04:01:40;100033.38;;;6.28;100.00
37238;BME280;23129;49.662;8.448;2023-12-14T04:04:10;100035.94;;;6.30;100.00
37238;BME280;23129;49.662;8.448;2023-12-14T04:06:45;100043.78;;;6.28;100.00
37238;BME280;23129;49.662;8.448;2023-12-14T04:09:14;100041.13;;;6.31;100.00
37238;BME280;23129;49.662;8.448;2023-12-14T04:11:45;100041.09;;;6.33;100.00
37238;BME280;23129;49.662;8.448;2023-12-14T04:14:14;100034.13;;;6.35;100.00
37238;BME280;23129;49.662;8.448;2023-12-14T04:16:43;100045.38;;;6.35;100.00
37238;BME280;23129;49.662;8.448;2023-12-14T04:19:13;100052.31;;;6.36;100.00
37238;BME280;23129;49.662;8.448;2023-12-14T04:21:42;100059.25;;;6.37;100.00
37238;BME280;23129;49.662;8.448;2023-12-14T04:24:11;100057.47;;;6.39;100.00
37238;BME280;23129;49.662;8.448;2023-12-14T04:26:40;100064.41;;;6.40;100.00
37238;BME280;23129;49.662;8.448;2023-12-14T04:29:09;100060.91;;;6.42;100.00
37238;BME280;23129;49.662;8.448;2023-12-14T04:31:38;100061.75;;;6.42;100.00
37238;BME280;23129;49.662;8.448;2023-12-14T04:34:06;100066.06;;;6.45;100.00
37238;BME280;23129;49.662;8.448;2023-12-14T04:36:41;100060.84;;;6.45;100.00
37238;BME280;23129;49.662;8.448;2023-12-14T04:39:09;100067.78;;;6.46;100.00
37238;BME280;23129;49.662;8.448;2023-12-14T04:41:38;100068.66;;;6.46;100.00
37238;BME280;23129;49.662;8.448;2023-12-14T04:44:07;100075.59;;;6.47;100.00
37238;BME280;23129;49.662;8.448;2023-12-14T04:46:37;100081.66;;;6.48;100.00
37238;BME280;23129;49.662;8.448;2023-12-14T04:49:06;100086.00;;;6.47;100.00
37238;BME280;23129;49.662;8.448;2023-12-14T04:51:35;100091.22;;;6.47;100.00
37238;BME280;23129;49.662;8.448;2023-12-14T04:54:05;100100.72;;;6.48;100.00
37238;BME280;23129;49.662;8.448;2023-12-14T04:56:34;100102.50;;;6.48;100.00
37238;BME280;23129;49.662;8.448;2023-12-14T04:59:03;100103.34;;;6.50;100.00
37238;BME280;23129;49.662;8.448;2023-12-14T05:01:32;100113.75;;;6.50;100.00
37238;BME280;23129;49.662;8.448;2023-12-14T05:04:01;100121.56;;;6.50;100.00
37238;BME280;23129;49.662;8.448;2023-12-14T05:06:30;100114.56;;;6.52;100.00
37238;BME280;23129;49.662;8.448;2023-12-14T05:09:00;100126.72;;;6.53;100.00
37238;BME280;23129;49.662;8.448;2023-12-14T05:11:33;100128.44;;;6.54;100.00
37238;BME280;23129;49.662;8.448;2023-12-14T05:14:01;100130.16;;;6.55;100.00
37238;BME280;23129;49.662;8.448;2023-12-14T05:16:30;100137.09;;;6.56;100.00
37238;BME280;23129;49.662;8.448;2023-12-14T05:18:59;100144.88;;;6.57;100.00
37238;BME280;23129;49.662;8.448;2023-12-14T05:21:28;100151.81;;;6.58;100.00
37238;BME280;23129;49.662;8.448;2023-12-14T05:23:57;100154.38;;;6.60;100.00
37238;BME280;23129;49.662;8.448;2023-12-14T05:26:26;100161.31;;;6.61;100.00
37238;BME280;23129;49.662;8.448;2023-12-14T05:28:56;100163.09;;;6.59;100.00
37238;BME280;23129;49.662;8.448;2023-12-14T05:31:25;100166.56;;;6.58;100.00
37238;BME280;23129;49.662;8.448;2023-12-14T05:33:54;100167.47;;;6.58;100.00
37238;BME280;23129;49.662;8.448;2023-12-14T05:36:22;100177.00;;;6.58;100.00
37238;BME280;23129;49.662;8.448;2023-12-14T05:38:51;100186.56;;;6.59;100.00
37238;BME280;23129;49.662;8.448;2023-12-14T05:41:20;100191.75;;;6.59;100.00
37238;BME280;23129;49.662;8.448;2023-12-14T05:43:48;100186.50;;;6.60;100.00
37238;BME280;23129;49.662;8.448;2023-12-14T05:46:22;100190.88;;;6.60;100.00
37238;BME280;23129;49.662;8.448;2023-12-14T05:48:51;100208.22;;;6.61;100.00
37238;BME280;23129;49.662;8.448;2023-12-14T05:51:27;100209.97;;;6.62;100.00
37238;BME280;23129;49.662;8.448;2023-12-14T05:53:56;100211.66;;;6.63;100.00
37238;BME280;23129;49.662;8.448;2023-12-14T05:56:25;100212.53;;;6.63;100.00
37238;BME280;23129;49.662;8.448;2023-12-14T05:58:56;100215.13;;;6.65;100.00
37238;BME280;23129;49.662;8.448;2023-12-14T06:01:26;100226.38;;;6.67;100.00
37238;BME280;23129;49.662;8.448;2023-12-14T06:03:56;100230.72;;;6.68;100.00
37238;BME280;23129;49.662;8.448;2023-12-14T06:06:24;100232.41;;;6.69;100.00
37238;BME280;23129;49.662;8.448;2023-12-14T06:08:53;100241.97;;;6.70;100.00
37238;BME280;23129;49.662;8.448;2023-12-14T06:11:22;100238.47;;;6.71;100.00
37238;BME280;23129;49.662;8.448;2023-12-14T06:13:51;100248.00;;;6.72;100.00
37238;BME280;23129;49.662;8.448;2023-12-14T06:16:20;100250.59;;;6.74;100.00
37238;BME280;23129;49.662;8.448;2023-12-14T06:18:50;100255.81;;;6.74;100.00
37238;BME280;23129;49.662;8.448;2023-12-14T06:21:19;100261.88;;;6.74;100.00
37238;BME280;23129;49.662;8.448;2023-12-14T06:23:48;100261.88;;;6.74;100.00
37238;BME280;23129;49.662;8.448;2023-12-14T06:26:18;100267.97;;;6.75;100.00
37238;BME280;23129;49.662;8.448;2023-12-14T06:28:47;100264.50;;;6.74;100.00
37238;BME280;23129;49.662;8.448;2023-12-14T06:31:17;100271.41;;;6.75;100.00
37238;BME280;23129;49.662;8.448;2023-12-14T06:33:49;100280.09;;;6.76;100.00
37238;BME280;23129;49.662;8.448;2023-12-14T06:36:18;100283.56;;;6.78;100.00
37238;BME280;23129;49.662;8.448;2023-12-14T06:38:46;100289.63;;;6.78;100.00
37238;BME280;23129;49.662;8.448;2023-12-14T06:41:19;100288.75;;;6.79;100.00
37238;BME280;23129;49.662;8.448;2023-12-14T06:43:48;100287.00;;;6.80;100.00
37238;BME280;23129;49.662;8.448;2023-12-14T06:46:18;100300.91;;;6.80;100.00
37238;BME280;23129;49.662;8.448;2023-12-14T06:48:48;100305.22;;;6.81;100.00
37238;BME280;23129;49.662;8.448;2023-12-14T06:51:17;100301.75;;;6.82;100.00
37238;BME280;23129;49.662;8.448;2023-12-14T06:53:46;100301.69;;;6.84;100.00
37238;BME280;23129;49.662;8.448;2023-12-14T06:56:15;100307.78;;;6.84;100.00
37238;BME280;23129;49.662;8.448;2023-12-14T06:58:45;100317.28;;;6.87;100.00
37238;BME280;23129;49.662;8.448;2023-12-14T07:01:17;100317.34;;;6.85;100.00
37238;BME280;23129;49.662;8.448;2023-12-14T07:03:46;100316.47;;;6.85;100.00
37238;BME280;23129;49.662;8.448;2023-12-14T07:06:17;100327.75;;;6.85;100.00
37238;BME280;23129;49.662;8.448;2023-12-14T07:08:46;100333.78;;;6.88;100.00
37238;BME280;23129;49.662;8.448;2023-12-14T07:11:16;100345.97;;;6.89;100.00
37238;BME280;23129;49.662;8.448;2023-12-14T07:13:45;100351.19;;;6.89;100.00
37238;BME280;23129;49.662;8.448;2023-12-14T07:16:14;100354.66;;;6.89;100.00
37238;BME280;23129;49.662;8.448;2023-12-14T07:18:44;100357.22;;;6.91;100.00
37238;BME280;23129;49.662;8.448;2023-12-14T07:21:15;100357.22;;;6.92;100.00
37238;BME280;23129;49.662;8.448;2023-12-14T07:23:44;100362.38;;;6.94;100.00
37238;BME280;23129;49.662;8.448;2023-12-14T07:26:13;100364.13;;;6.95;100.00
37238;BME280;23129;49.662;8.448;2023-12-14T07:28:42;100368.44;;;6.97;100.00
37238;BME280;23129;49.662;8.448;2023-12-14T07:31:10;100382.31;;;6.99;100.00
37238;BME280;23129;49.662;8.448;2023-12-14T07:33:39;100383.16;;;7.00;100.00
37238;BME280;23129;49.662;8.448;2023-12-14T07:36:08;100384.00;;;7.02;100.00
37238;BME280;23129;49.662;8.448;2023-12-14T07:38:39;100387.47;;;7.02;100.00
37238;BME280;23129;49.662;8.448;2023-12-14T07:41:07;100387.47;;;7.04;100.00
37238;BME280;23129;49.662;8.448;2023-12-14T07:43:36;100395.28;;;7.04;100.00
37238;BME280;23129;49.662;8.448;2023-12-14T07:46:05;100408.28;;;7.05;100.00
37238;BME280;23129;49.662;8.448;2023-12-14T07:48:34;100416.09;;;7.07;100.00
37238;BME280;23129;49.662;8.448;2023-12-14T07:51:03;100418.66;;;7.10;100.00
37238;BME280;23129;49.662;8.448;2023-12-14T07:53:32;100424.75;;;7.12;100.00
37238;BME280;23129;49.662;8.448;2023-12-14T07:56:02;100421.22;;;7.13;100.00
37238;BME280;23129;49.662;8.448;2023-12-14T07:58:31;100422.09;;;7.15;100.00
37238;BME280;23129;49.662;8.448;2023-12-14T08:01:00;100425.50;;;7.17;100.00
37238;BME280;23129;49.662;8.448;2023-12-14T08:03:29;100428.06;;;7.20;100.00
37238;BME280;23129;49.662;8.448;2023-12-14T08:05:58;100435.00;;;7.24;100.00
37238;BME280;23129;49.662;8.448;2023-12-14T08:08:26;100441.03;;;7.26;100.00
37238;BME280;23129;49.662;8.448;2023-12-14T08:10:55;100445.34;;;7.30;100.00
37238;BME280;23129;49.662;8.448;2023-12-14T08:13:25;100449.63;;;7.35;100.00
37238;BME280;23129;49.662;8.448;2023-12-14T08:15:54;100455.69;;;7.37;100.00
37238;BME280;23129;49.662;8.448;2023-12-14T08:18:23;100459.09;;;7.39;100.00
37238;BME280;23129;49.662;8.448;2023-12-14T08:20:52;100467.78;;;7.41;100.00
37238;BME280;23129;49.662;8.448;2023-12-14T08:23:22;100478.22;;;7.42;100.00
37238;BME280;23129;49.662;8.448;2023-12-14T08:25:54;100478.19;;;7.44;100.00
37238;BME280;23129;49.662;8.448;2023-12-14T08:28:26;100490.31;;;7.46;100.00
37238;BME280;23129;49.662;8.448;2023-12-14T08:30:54;100478.13;;;7.47;100.00
37238;BME280;23129;49.662;8.448;2023-12-14T08:33:25;100495.53;;;7.48;100.00
37238;BME280;23129;49.662;8.448;2023-12-14T08:35:54;100500.72;;;7.51;100.00
37238;BME280;23129;49.662;8.448;2023-12-14T08:38:23;100507.66;;;7.52;100.00
37238;BME280;23129;49.662;8.448;2023-12-14T08:40:52;100517.22;;;7.51;100.00
37238;BME280;23129;49.662;8.448;2023-12-14T08:43:21;100518.94;;;7.54;100.00
37238;BME280;23129;49.662;8.448;2023-12-14T08:45:51;100521.56;;;7.54;100.00
37238;BME280;23129;49.662;8.448;2023-12-14T08:48:20;100525.00;;;7.54;100.00
37238;BME280;23129;49.662;8.448;2023-12-14T08:50:49;100526.72;;;7.55;100.00
37238;BME280;23129;49.662;8.448;2023-12-14T08:53:17;100532.75;;;7.59;100.00
37238;BME280;23129;49.662;8.448;2023-12-14T08:55:46;100547.50;;;7.63;100.00
37238;BME280;23129;49.662;8.448;2023-12-14T08:58:15;100546.63;;;7.66;100.00
37238;BME280;23129;49.662;8.448;2023-12-14T09:00:44;100549.19;;;7.67;100.00
37238;BME280;23129;49.662;8.448;2023-12-14T09:03:14;100562.22;;;7.69;100.00
37238;BME280;23129;49.662;8.448;2023-12-14T09:05:43;100563.09;;;7.69;100.00
37238;BME280;23129;49.662;8.448;2023-12-14T09:08:12;100571.75;;;7.71;100.00
37238;BME280;23129;49.662;8.448;2023-12-14T09:10:41;100568.28;;;7.72;100.00
37238;BME280;23129;49.662;8.448;2023-12-14T09:13:10;100579.53;;;7.74;100.00
37238;BME280;23129;49.662;8.448;2023-12-14T09:15:39;100583.03;;;7.75;100.00
37238;BME280;23129;49.662;8.448;2023-12-14T09:18:07;100586.47;;;7.78;100.00
37238;BME280;23129;49.662;8.448;2023-12-14T09:20:38;100586.41;;;7.82;100.00
37238;BME280;23129;49.662;8.448;2023-12-14T09:23:08;100591.53;;;7.88;100.00
37238;BME280;23129;49.662;8.448;2023-12-14T09:25:37;100599.34;;;7.91;100.00
37238;BME280;23129;49.662;8.448;2023-12-14T09:28:07;100612.31;;;7.95;100.00
37238;BME280;23129;49.662;8.448;2023-12-14T09:30:36;100609.66;;;8.00;100.00
37238;BME280;23129;49.662;8.448;2023-12-14T09:33:05;100629.59;;;8.04;100.00
37238;BME280;23129;49.662;8.448;2023-12-14T09:35:37;100625.22;;;8.06;100.00
37238;BME280;23129;49.662;8.448;2023-12-14T09:38:07;100635.63;;;8.11;100.00
37238;BME280;23129;49.662;8.448;2023-12-14T09:40:35;100644.28;;;8.14;100.00
37238;BME280;23129;49.662;8.448;2023-12-14T09:43:04;100645.94;;;8.18;100.00
37238;BME280;23129;49.662;8.448;2023-12-14T09:45:35;100649.38;;;8.22;100.00
37238;BME280;23129;49.662;8.448;2023-12-14T09:48:05;100657.13;;;8.28;100.00
37238;BME280;23129;49.662;8.448;2023-12-14T09:50:36;100652.72;;;8.32;100.00
37238;BME280;23129;49.662;8.448;2023-12-14T09:53:07;100661.34;;;8.37;100.00
37238;BME280;23129;49.662;8.448;2023-12-14T09:55:36;100663.94;;;8.40;100.00
37238;BME280;23129;49.662;8.448;2023-12-14T09:58:05;100673.44;;;8.45;100.00
37238;BME280;23129;49.662;8.448;2023-12-14T10:00:38;100664.69;;;8.50;100.00
37238;BME280;23129;49.662;8.448;2023-12-14T10:03:19;100661.97;;;8.56;100.00
37238;BME280;23129;49.662;8.448;2023-12-14T10:05:50;100666.16;;;8.64;100.00
37238;BME280;23129;49.662;8.448;2023-12-14T10:08:19;100676.50;;;8.74;100.00
37238;BME280;23129;49.662;8.448;2023-12-14T10:10:50;100676.34;;;8.83;100.00
37238;BME280;23129;49.662;8.448;2023-12-14T10:13:22;100670.03;;;8.93;100.00
37238;BME280;23129;49.662;8.448;2023-12-14T10:16:04;100672.50;;;9.02;100.00
37238;BME280;23129;49.662;8.448;2023-12-14T10:18:33;100674.94;;;9.11;100.00
37238;BME280;23129;49.662;8.448;2023-12-14T10:21:06;100682.63;;;9.21;100.00
37238;BME280;23129;49.662;8.448;2023-12-14T10:23:36;100680.72;;;9.30;100.00
37238;BME280;23129;49.662;8.448;2023-12-14T10:26:05;100679.72;;;9.37;100.00
37238;BME280;23129;49.662;8.448;2023-12-14T10:28:34;100678.72;;;9.43;100.00
37238;BME280;23129;49.662;8.448;2023-12-14T10:31:03;100688.25;;;9.47;100.00
37238;BME280;23129;49.662;8.448;2023-12-14T10:33:33;100690.78;;;9.50;100.00
37238;BME280;23129;49.662;8.448;2023-12-14T10:36:02;100696.03;;;9.50;100.00
37238;BME280;23129;49.662;8.448;2023-12-14T10:38:35;100692.63;;;9.45;100.00
37238;BME280;23129;49.662;8.448;2023-12-14T10:41:06;100699.69;;;9.43;100.00
37238;BME280;23129;49.662;8.448;2023-12-14T10:43:37;100704.06;;;9.41;100.00
37238;BME280;23129;49.662;8.448;2023-12-14T10:46:16;100699.72;;;9.40;100.00
37238;BME280;23129;49.662;8.448;2023-12-14T10:48:50;100699.69;;;9.43;100.00
37238;BME280;23129;49.662;8.448;2023-12-14T10:51:22;100697.88;;;9.45;100.00
37238;BME280;23129;49.662;8.448;2023-12-14T10:53:54;100701.34;;;9.47;100.00
37238;BME280;23129;49.662;8.448;2023-12-14T10:56:24;100706.50;;;9.50;100.00
37238;BME280;23129;49.662;8.448;2023-12-14T10:58:55;100715.22;;;9.52;100.00
37238;BME280;23129;49.662;8.448;2023-12-14T11:01:24;100722.16;;;9.53;100.00
37238;BME280;23129;49.662;8.448;2023-12-14T11:03:55;100727.41;;;9.53;100.00
37238;BME280;23129;49.662;8.448;2023-12-14T11:06:31;100731.81;;;9.51;100.00
37238;BME280;23129;49.662;8.448;2023-12-14T11:09:04;100734.44;;;9.51;100.00
37238;BME280;23129;49.662;8.448;2023-12-14T11:11:47;100729.25;;;9.48;100.00
37238;BME280;23129;49.662;8.448;2023-12-14T11:14:17;100739.72;;;9.48;100.00
37238;BME280;23129;49.662;8.448;2023-12-14T11:16:49;100746.75;;;9.46;100.00
37238;BME280;23129;49.662;8.448;2023-12-14T11:19:31;100745.09;;;9.41;100.00
37238;BME280;23129;49.662;8.448;2023-12-14T11:22:14;100757.38;;;9.37;100.00
37238;BME280;23129;49.662;8.448;2023-12-14T11:24:54;100760.88;;;9.36;100.00
37238;BME280;23129;49.662;8.448;2023-12-14T11:27:30;100753.97;;;9.32;100.00
37238;BME280;23129;49.662;8.448;2023-12-14T11:29:59;100767.06;;;9.33;100.00
37238;BME280;23129;49.662;8.448;2023-12-14T11:32:29;100767.91;;;9.34;100.00
37238;BME280;23129;49.662;8.448;2023-12-14T11:34:58;100778.38;;;9.34;100.00
37238;BME280;23129;49.662;8.448;2023-12-14T11:37:26;100774.91;;;9.33;100.00
37238;BME280;23129;49.662;8.448;2023-12-14T11:39:57;100781.88;;;9.33;100.00
37238;BME280;23129;49.662;8.448;2023-12-14T11:42:25;100782.78;;;9.32;100.00
37238;BME280;23129;49.662;8.448;2023-12-14T11:45:00;100783.66;;;9.31;100.00
37238;BME280;23129;49.662;8.448;2023-12-14T11:47:30;100791.53;;;9.29;100.00
37238;BME280;23129;49.662;8.448;2023-12-14T11:50:00;100796.75;;;9.29;100.00
37238;BME280;23129;49.662;8.448;2023-12-14T11:52:28;100793.28;;;9.29;100.00
37238;BME280;23129;49.662;8.448;2023-12-14T11:54:58;100790.72;;;9.27;100.00
37238;BME280;23129;49.662;8.448;2023-12-14T11:57:29;100791.53;;;9.29;100.00
37238;BME280;23129;49.662;8.448;2023-12-14T11:59:58;100802.00;;;9.29;100.00
37238;BME280;23129;49.662;8.448;2023-12-14T12:02:27;100806.38;;;9.29;100.00
37238;BME280;23129;49.662;8.448;2023-12-14T12:04:56;100802.03;;;9.28;100.00
37238;BME280;23129;49.662;8.448;2023-12-14T12:07:25;100804.66;;;9.28;100.00
37238;BME280;23129;49.662;8.448;2023-12-14T12:09:53;100810.75;;;9.28;100.00
37238;BME280;23129;49.662;8.448;2023-12-14T12:12:23;100802.03;;;9.28;100.00
37238;BME280;23129;49.662;8.448;2023-12-14T12:14:52;100802.88;;;9.30;100.00
37238;BME280;23129;49.662;8.448;2023-12-14T12:17:21;100801.94;;;9.32;100.00
37238;BME280;23129;49.662;8.448;2023-12-14T12:19:50;100810.66;;;9.33;100.00
37238;BME280;23129;49.662;8.448;2023-12-14T12:22:19;100811.50;;;9.35;100.00
37238;BME280;23129;49.662;8.448;2023-12-14T12:24:47;100817.56;;;9.38;100.00
37238;BME280;23129;49.662;8.448;2023-12-14T12:27:32;100826.19;;;9.44;100.00
37238;BME280;23129;49.662;8.448;2023-12-14T12:30:01;100827.88;;;9.48;100.00
37238;BME280;23129;49.662;8.448;2023-12-14T12:32:31;100828.69;;;9.51;100.00
37238;BME280;23129;49.662;8.448;2023-12-14T12:34:59;100819.97;;;9.51;100.00
37238;BME280;23129;49.662;8.448;2023-12-14T12:37:28;100822.63;;;9.49;100.00
37238;BME280;23129;49.662;8.448;2023-12-14T12:39:57;100820.00;;;9.49;100.00
37238;BME280;23129;49.662;8.448;2023-12-14T12:42:26;100826.91;;;9.53;100.00
37238;BME280;23129;49.662;8.448;2023-12-14T12:44:58;100825.06;;;9.58;100.00
37238;BME280;23129;49.662;8.448;2023-12-14T12:47:26;100827.53;;;9.66;100.00
37238;BME280;23129;49.662;8.448;2023-12-14T12:49:55;100821.31;;;9.72;100.00
37238;BME280;23129;49.662;8.448;2023-12-14T12:52:24;100826.44;;;9.79;100.00
37238;BME280;23129;49.662;8.448;2023-12-14T12:54:54;100825.47;;;9.85;100.00
37238;BME280;23129;49.662;8.448;2023-12-14T12:57:22;100826.25;;;9.90;100.00
37238;BME280;23129;49.662;8.448;2023-12-14T12:59:51;100832.38;;;9.89;100.00
37238;BME280;23129;49.662;8.448;2023-12-14T13:02:21;100836.72;;;9.90;100.00
37238;BME280;23129;49.662;8.448;2023-12-14T13:04:50;100840.22;;;9.91;100.00